Time;durP1;ratioP1;P1;durP2;ratioP2;P2;SDS_P1;SDS_P2;PMS_P1;PMS_P2;Temp;Humidity;BMP_temperature;BMP_pressure;BME280_temperature;BME280_humidity;BME280_pressure;Samples;Min_cycle;Max_cycle;Signal;HPM_P1;HPM_P2
2021/01/11 00:00:54;;;;;;;;;;;;;;;28.65;24.49;100869.34;5099156;28;811;-39
2021/01/11 00:03:19;;;;;;;;;;;;;;;28.83;24.00;100850.81;5099452;28;827;-37
2021/01/11 00:05:45;;;;;;;;;;;;;;;28.41;24.71;100836.19;5099212;28;814;-39
2021/01/11 00:08:10;;;;;;;;;;;;;;;28.33;24.64;100861.47;5098556;28;993;-35
2021/01/11 00:10:36;;;;;;;;;;;;;;;28.16;25.06;100848.09;5099414;28;831;-42
2021/01/11 00:13:02;;;;;;;;;;;;;;;28.66;24.36;100855.59;5098689;28;827;-37
2021/01/11 00:15:27;;;;;;;;;;;;;;;28.70;24.26;100856.91;5098960;28;776;-38
2021/01/11 00:17:52;;;;;;;;;;;;;;;28.77;24.44;100866.97;5099099;28;1178;-43
2021/01/11 00:20:17;;;;;;;;;;;;;;;29.00;23.86;100883.06;5099005;28;720;-37
2021/01/11 00:22:43;;;;;;;;;;;;;;;28.67;24.41;100887.06;5098402;28;1001;-37
2021/01/11 00:25:09;;;;;;;;;;;;;;;28.26;24.72;100890.28;5097510;28;1688;-37
2021/01/11 00:27:34;;;;;;;;;;;;;;;28.53;24.68;100874.44;5098544;28;791;-35
2021/01/11 00:29:59;;;;;;;;;;;;;;;28.62;24.30;100873.28;5098644;28;818;-44
2021/01/11 00:32:25;;;;;;;;;;;;;;;28.68;24.44;100858.13;5098971;28;1905;-39
2021/01/11 00:34:50;;;;;;;;;;;;;;;28.16;24.71;100833.78;5098710;28;799;-44
2021/01/11 00:37:15;;;;;;;;;;;;;;;28.57;24.74;100830.56;5098180;28;953;-42
2021/01/11 00:39:40;;;;;;;;;;;;;;;28.86;24.16;100819.81;5098682;28;838;-44
2021/01/11 00:42:06;;;;;;;;;;;;;;;28.65;24.16;100793.53;5098661;28;802;-42
2021/01/11 00:44:31;;;;;;;;;;;;;;;28.34;24.67;100790.13;5098668;28;810;-42
2021/01/11 00:47:03;;;;;;;;;;;;;;;27.94;25.21;100798.53;5098211;28;821;-37
2021/01/11 00:49:28;;;;;;;;;;;;;;;28.44;24.87;100806.88;5098257;28;486;-43
2021/01/11 00:51:54;;;;;;;;;;;;;;;28.82;24.14;100808.53;5097994;28;1906;-35
2021/01/11 00:54:19;;;;;;;;;;;;;;;28.98;24.00;100814.72;5098389;28;810;-37
2021/01/11 00:56:44;;;;;;;;;;;;;;;28.91;24.11;100852.53;5098311;28;846;-34
2021/01/11 00:59:10;;;;;;;;;;;;;;;28.55;24.45;100899.41;5098324;28;795;-35
2021/01/11 01:01:35;;;;;;;;;;;;;;;28.36;24.58;100913.34;5098274;28;765;-42
2021/01/11 01:04:00;;;;;;;;;;;;;;;28.19;25.12;100931.59;5098264;28;835;-44
2021/01/11 01:06:25;;;;;;;;;;;;;;;28.47;24.55;100940.94;5097455;28;1022;-43
2021/01/11 01:08:51;;;;;;;;;;;;;;;28.65;24.60;100918.06;5096928;28;807;-43
2021/01/11 01:11:16;;;;;;;;;;;;;;;28.94;24.28;100884.66;5097905;28;1905;-44
2021/01/11 01:13:43;;;;;;;;;;;;;;;28.70;24.48;100875.88;5097874;28;763;-37
2021/01/11 01:16:09;;;;;;;;;;;;;;;28.95;23.96;100891.75;5097924;28;809;-33
2021/01/11 01:18:34;;;;;;;;;;;;;;;28.66;24.14;100889.97;5097941;28;1149;-36
2021/01/11 01:20:59;;;;;;;;;;;;;;;28.38;24.90;100883.38;5097556;28;787;-43
2021/01/11 01:23:25;;;;;;;;;;;;;;;28.30;25.18;100891.56;5097244;28;938;-34
2021/01/11 01:25:50;;;;;;;;;;;;;;;28.66;24.30;100906.22;5097547;28;1142;-37
2021/01/11 01:28:16;;;;;;;;;;;;;;;28.56;24.69;100904.63;5097518;28;810;-43
2021/01/11 01:30:41;;;;;;;;;;;;;;;28.75;24.28;100896.09;5097704;28;1997;-37
2021/01/11 01:33:06;;;;;;;;;;;;;;;28.92;23.86;100892.13;5097621;28;829;-43
2021/01/11 01:35:31;;;;;;;;;;;;;;;29.01;23.88;100870.38;5097257;28;780;-43
2021/01/11 01:37:57;;;;;;;;;;;;;;;28.67;24.12;100851.88;5096908;28;969;-41
2021/01/11 01:40:23;;;;;;;;;;;;;;;28.29;24.93;100846.63;5097629;28;759;-37
2021/01/11 01:42:48;;;;;;;;;;;;;;;28.60;24.68;100851.81;5097434;28;807;-35
2021/01/11 01:45:13;;;;;;;;;;;;;;;28.77;24.15;100843.44;5097442;28;862;-38
2021/01/11 01:47:38;;;;;;;;;;;;;;;28.84;24.10;100838.13;5097749;28;862;-33
2021/01/11 01:50:05;;;;;;;;;;;;;;;28.67;24.70;100841.06;5095949;28;781;-37
2021/01/11 01:52:30;;;;;;;;;;;;;;;28.84;24.29;100843.53;5096293;28;1963;-40
2021/01/11 01:54:55;;;;;;;;;;;;;;;28.92;23.91;100851.53;5097280;28;748;-43
2021/01/11 01:57:21;;;;;;;;;;;;;;;28.49;24.87;100857.72;5097265;28;878;-42
2021/01/11 01:59:48;;;;;;;;;;;;;;;28.27;24.93;100849.50;5095602;28;806;-43
2021/01/11 02:02:17;;;;;;;;;;;;;;;28.43;24.97;100848.47;5097327;28;766;-36
2021/01/11 02:04:42;;;;;;;;;;;;;;;28.68;24.55;100855.41;5097014;28;833;-33
2021/01/11 02:07:12;;;;;;;;;;;;;;;28.87;24.18;100858.53;5095940;28;976;-36
2021/01/11 02:09:44;;;;;;;;;;;;;;;28.73;24.62;100851.13;5097074;28;831;-37
2021/01/11 02:12:15;;;;;;;;;;;;;;;29.01;24.22;100838.69;5097223;28;1972;-43
2021/01/11 02:14:53;;;;;;;;;;;;;;;28.70;24.30;100837.13;5095541;28;755;-43
2021/01/11 02:17:21;;;;;;;;;;;;;;;28.29;25.04;100822.28;5096760;28;1209;-38
2021/01/11 02:20:05;;;;;;;;;;;;;;;28.38;24.98;100823.84;5096564;28;790;-35
2021/01/11 02:22:48;;;;;;;;;;;;;;;28.52;24.81;100814.03;5096308;28;926;-34
2021/01/11 02:25:16;;;;;;;;;;;;;;;28.98;23.92;100814.72;5096375;28;1236;-38
2021/01/11 02:27:42;;;;;;;;;;;;;;;28.66;24.65;100825.03;5096304;28;838;-36
2021/01/11 02:30:10;;;;;;;;;;;;;;;28.92;24.28;100819.03;5096798;28;786;-36
2021/01/11 02:32:59;;;;;;;;;;;;;;;29.03;23.68;100808.75;5096427;28;1976;-42
2021/01/11 02:35:24;;;;;;;;;;;;;;;28.34;25.01;100815.28;5088065;28;1348;-43
2021/01/11 02:37:50;;;;;;;;;;;;;;;28.33;24.84;100810.91;5096284;28;977;-37
2021/01/11 02:40:15;;;;;;;;;;;;;;;28.46;24.77;100815.63;5095248;28;843;-39
2021/01/11 02:42:40;;;;;;;;;;;;;;;28.81;24.67;100803.31;5096322;28;750;-36
2021/01/11 02:45:07;;;;;;;;;;;;;;;28.84;24.44;100792.09;5096583;28;807;-39
2021/01/11 02:47:38;;;;;;;;;;;;;;;28.85;24.28;100777.50;5096142;28;739;-43
2021/01/11 02:50:03;;;;;;;;;;;;;;;29.04;23.99;100769.78;5096274;28;732;-36
2021/01/11 02:52:28;;;;;;;;;;;;;;;28.59;24.72;100762.69;5095092;28;1969;-36
2021/01/11 02:54:54;;;;;;;;;;;;;;;28.42;24.83;100754.81;5096386;28;779;-43
2021/01/11 02:57:38;;;;;;;;;;;;;;;28.76;24.68;100748.91;5077820;28;712;-32
2021/01/11 03:00:04;;;;;;;;;;;;;;;28.82;24.54;100729.16;5095395;28;791;-44
2021/01/11 03:02:31;;;;;;;;;;;;;;;28.98;24.27;100743.50;5095060;28;740;-41
2021/01/11 03:04:56;;;;;;;;;;;;;;;28.74;24.57;100735.56;5094298;28;831;-36
2021/01/11 03:07:22;;;;;;;;;;;;;;;28.90;24.30;100729.03;5095772;28;1099;-37
2021/01/11 03:09:47;;;;;;;;;;;;;;;28.82;24.55;100715.63;5096334;28;794;-41
2021/01/11 03:12:13;;;;;;;;;;;;;;;28.31;25.21;100698.50;5096047;28;1964;-42
2021/01/11 03:14:38;;;;;;;;;;;;;;;28.52;24.91;100702.25;5096357;28;874;-37
2021/01/11 03:17:03;;;;;;;;;;;;;;;28.65;24.67;100705.06;5096016;28;1114;-42
2021/01/11 03:19:29;;;;;;;;;;;;;;;29.02;24.43;100720.41;5096043;28;784;-45
2021/01/11 03:21:54;;;;;;;;;;;;;;;29.01;24.22;100724.97;5095830;28;945;-38
2021/01/11 03:24:19;;;;;;;;;;;;;;;29.01;24.21;100726.84;5096078;28;1082;-35
2021/01/11 03:26:45;;;;;;;;;;;;;;;29.13;24.06;100725.25;5095639;28;866;-37
2021/01/11 03:29:10;;;;;;;;;;;;;;;28.59;24.74;100712.09;5095995;28;871;-37
2021/01/11 03:31:36;;;;;;;;;;;;;;;28.44;25.22;100698.66;5096133;28;1922;-37
2021/01/11 03:34:01;;;;;;;;;;;;;;;28.64;24.54;100692.59;5095911;28;820;-35
2021/01/11 03:36:29;;;;;;;;;;;;;;;29.05;24.28;100695.63;5095440;28;965;-44
2021/01/11 03:38:55;;;;;;;;;;;;;;;28.68;24.66;100704.69;5096268;28;826;-36
2021/01/11 03:41:20;;;;;;;;;;;;;;;28.84;24.50;100721.69;5095698;28;862;-34
2021/01/11 03:43:45;;;;;;;;;;;;;;;28.84;24.44;100724.41;5095947;28;877;-42
2021/01/11 03:46:11;;;;;;;;;;;;;;;28.81;24.56;100709.38;5096031;28;806;-44
2021/01/11 03:48:36;;;;;;;;;;;;;;;28.37;24.90;100692.34;5095917;28;838;-44
2021/01/11 03:51:02;;;;;;;;;;;;;;;27.89;25.67;100674.75;5095589;28;1963;-42
2021/01/11 03:53:27;;;;;;;;;;;;;;;28.73;24.64;100686.00;5095854;28;988;-38
2021/01/11 03:55:53;;;;;;;;;;;;;;;28.79;24.75;100686.25;5095818;28;759;-43
2021/01/11 03:58:18;;;;;;;;;;;;;;;29.07;24.16;100688.16;5095531;28;767;-35
2021/01/11 04:00:43;;;;;;;;;;;;;;;28.99;24.17;100667.47;5098301;28;781;-44
2021/01/11 04:03:08;;;;;;;;;;;;;;;28.99;24.21;100658.50;5099414;28;770;-35
2021/01/11 04:05:35;;;;;;;;;;;;;;;28.53;24.79;100666.88;5099015;28;846;-37
2021/01/11 04:08:00;;;;;;;;;;;;;;;28.37;25.33;100673.41;5099237;28;973;-35
2021/01/11 04:10:25;;;;;;;;;;;;;;;28.91;24.63;100659.47;5099143;28;834;-41
2021/01/11 04:12:51;;;;;;;;;;;;;;;29.10;24.29;100660.66;5099220;28;1969;-35
2021/01/11 04:15:16;;;;;;;;;;;;;;;29.19;24.02;100662.19;5099230;28;775;-43
2021/01/11 04:17:42;;;;;;;;;;;;;;;29.16;24.30;100653.63;5098638;28;1087;-36
2021/01/11 04:20:07;;;;;;;;;;;;;;;29.17;23.89;100650.72;5098947;28;846;-36
2021/01/11 04:22:32;;;;;;;;;;;;;;;28.63;24.67;100655.72;5098244;28;971;-44
2021/01/11 04:24:58;;;;;;;;;;;;;;;28.26;25.28;100658.47;5098731;28;1301;-38
2021/01/11 04:27:23;;;;;;;;;;;;;;;28.32;25.46;100665.00;5098676;28;791;-35
2021/01/11 04:29:48;;;;;;;;;;;;;;;29.01;24.39;100665.38;5099051;28;759;-37
2021/01/11 04:32:13;;;;;;;;;;;;;;;28.53;25.26;100683.13;5098681;28;1923;-36
2021/01/11 04:34:39;;;;;;;;;;;;;;;28.26;25.91;100693.63;5098986;28;838;-35
2021/01/11 04:37:06;;;;;;;;;;;;;;;28.21;26.01;100688.81;5098309;28;957;-44
2021/01/11 04:39:33;;;;;;;;;;;;;;;27.91;25.40;100683.50;5098860;28;894;-33
2021/01/11 04:41:59;;;;;;;;;;;;;;;26.24;26.81;100686.94;5098217;28;923;-32
2021/01/11 04:44:24;;;;;;;;;;;;;;;25.96;27.66;100688.25;5098762;28;759;-33
2021/01/11 04:46:49;;;;;;;;;;;;;;;25.92;27.44;100685.06;5097461;28;738;-35
2021/01/11 04:49:15;;;;;;;;;;;;;;;25.86;27.36;100710.03;5096874;28;988;-34
2021/01/11 04:51:40;;;;;;;;;;;;;;;24.66;26.52;100732.06;5098018;28;1910;-47
2021/01/11 04:54:06;;;;;;;;;;;;;;;24.40;27.35;100740.28;5098492;28;783;-42
2021/01/11 04:56:31;;;;;;;;;;;;;;;24.99;26.21;100725.88;5096516;28;1123;-44
2021/01/11 04:58:57;;;;;;;;;;;;;;;24.71;26.95;100731.56;5102886;28;1423;-46
2021/01/11 05:01:26;;;;;;;;;;;;;;;24.75;26.77;100751.75;5114014;28;1363;-43
2021/01/11 05:03:51;;;;;;;;;;;;;;;24.00;26.48;100751.56;5107123;28;1366;-44
2021/01/11 05:06:17;;;;;;;;;;;;;;;25.10;26.68;100729.25;5101984;28;1120;-32
2021/01/11 05:08:43;;;;;;;;;;;;;;;25.21;26.09;100725.38;5116357;28;889;-31
2021/01/11 05:11:08;;;;;;;;;;;;;;;25.23;25.71;100743.03;5117684;28;1905;-33
2021/01/11 05:13:33;;;;;;;;;;;;;;;24.91;26.18;100712.44;5118439;28;826;-32
2021/01/11 05:15:59;;;;;;;;;;;;;;;24.66;26.30;100693.56;5118424;28;755;-35
2021/01/11 05:18:31;;;;;;;;;;;;;;;24.19;26.98;100702.09;5115027;28;1281;-33
2021/01/11 05:20:56;;;;;;;;;;;;;;;24.04;26.86;100692.97;5118538;28;794;-30
2021/01/11 05:23:21;;;;;;;;;;;;;;;24.09;26.77;100693.28;5100198;28;949;-31
2021/01/11 05:25:47;;;;;;;;;;;;;;;23.95;26.87;100697.47;5097352;28;1075;-42
2021/01/11 05:28:15;;;;;;;;;;;;;;;24.92;25.52;100708.75;5097472;28;803;-31
2021/01/11 05:30:40;;;;;;;;;;;;;;;24.80;25.68;100724.34;5097887;28;802;-32
2021/01/11 05:33:07;;;;;;;;;;;;;;;25.24;25.04;100727.72;5097297;28;2025;-38
2021/01/11 05:35:32;;;;;;;;;;;;;;;26.25;24.28;100731.75;5097622;28;668;-34
2021/01/11 05:37:59;;;;;;;;;;;;;;;26.31;24.71;100741.00;5097491;28;1021;-34
2021/01/11 05:40:25;;;;;;;;;;;;;;;26.55;24.63;100744.56;5097374;28;814;-38
2021/01/11 05:42:51;;;;;;;;;;;;;;;26.86;24.32;100751.78;5097640;28;906;-45
2021/01/11 05:45:20;;;;;;;;;;;;;;;26.94;24.04;100740.06;5097507;28;839;-33
2021/01/11 05:48:12;;;;;;;;;;;;;;;26.98;24.13;100746.75;5097492;28;742;-43
2021/01/11 05:50:47;;;;;;;;;;;;;;;27.25;24.10;100761.56;5094063;28;1035;-34
2021/01/11 05:53:27;;;;;;;;;;;;;;;27.29;24.12;100753.09;5097051;28;1958;-44
2021/01/11 05:55:53;;;;;;;;;;;;;;;27.52;24.01;100736.81;5096779;28;771;-34
2021/01/11 05:58:19;;;;;;;;;;;;;;;27.36;24.36;100727.03;5096991;28;909;-37
2021/01/11 06:00:44;;;;;;;;;;;;;;;26.56;26.01;100719.28;5097429;28;789;-43
2021/01/11 06:03:10;;;;;;;;;;;;;;;26.06;26.32;100723.09;5096765;28;803;-40
2021/01/11 06:05:35;;;;;;;;;;;;;;;25.71;26.94;100717.19;5097266;28;810;-41
2021/01/11 06:08:00;;;;;;;;;;;;;;;25.61;27.23;100720.88;5097618;28;954;-41
2021/01/11 06:10:26;;;;;;;;;;;;;;;25.54;27.49;100718.03;5096425;28;885;-38
2021/01/11 06:12:51;;;;;;;;;;;;;;;25.47;27.49;100709.00;5097054;28;1960;-40
2021/01/11 06:15:17;;;;;;;;;;;;;;;25.70;27.27;100697.50;5097155;28;741;-38
2021/01/11 06:17:43;;;;;;;;;;;;;;;25.47;27.68;100700.91;5096426;28;1146;-40
2021/01/11 06:20:12;;;;;;;;;;;;;;;25.34;27.97;100703.31;5096860;28;810;-41
2021/01/11 06:22:46;;;;;;;;;;;;;;;25.36;27.98;100714.75;5084134;28;942;-41
2021/01/11 06:25:17;;;;;;;;;;;;;;;25.56;27.71;100716.03;5076208;28;1325;-39
2021/01/11 06:27:51;;;;;;;;;;;;;;;25.31;28.04;100715.25;5077084;28;803;-40
2021/01/11 06:30:26;;;;;;;;;;;;;;;25.34;28.10;100725.66;5088158;28;826;-35
2021/01/11 06:32:52;;;;;;;;;;;;;;;25.72;27.57;100725.09;5094849;28;1973;-39
2021/01/11 06:35:18;;;;;;;;;;;;;;;26.09;26.95;100721.91;5095542;28;821;-40
2021/01/11 06:37:43;;;;;;;;;;;;;;;26.02;27.10;100727.16;5082237;28;1808;-40
2021/01/11 06:40:09;;;;;;;;;;;;;;;25.59;27.65;100755.22;5074649;28;2128;-35
2021/01/11 06:42:34;;;;;;;;;;;;;;;25.37;28.27;100767.56;5076969;28;703;-35
2021/01/11 06:44:59;;;;;;;;;;;;;;;25.79;27.69;100768.34;5076767;28;826;-40
2021/01/11 06:47:31;;;;;;;;;;;;;;;26.00;27.20;100764.22;5076421;28;743;-34
2021/01/11 06:50:05;;;;;;;;;;;;;;;26.27;26.94;100765.63;5076828;28;849;-40
2021/01/11 06:52:35;;;;;;;;;;;;;;;25.60;27.99;100772.25;5087064;28;1977;-35
2021/01/11 06:55:08;;;;;;;;;;;;;;;25.40;28.30;100772.63;5096047;28;850;-33
2021/01/11 06:57:33;;;;;;;;;;;;;;;26.01;27.44;100764.03;5096940;28;853;-36
2021/01/11 07:00:01;;;;;;;;;;;;;;;26.16;27.22;100760.59;5095286;28;771;-40
2021/01/11 07:02:26;;;;;;;;;;;;;;;26.37;27.09;100764.59;5094801;28;1515;-36
2021/01/11 07:04:52;;;;;;;;;;;;;;;25.80;27.96;100770.03;5096902;28;730;-32
2021/01/11 07:07:21;;;;;;;;;;;;;;;25.76;27.95;100753.38;5095872;28;929;-35
2021/01/11 07:09:48;;;;;;;;;;;;;;;26.06;27.49;100738.44;5096230;28;767;-41
2021/01/11 07:12:13;;;;;;;;;;;;;;;26.30;27.13;100745.53;5096456;28;1964;-36
2021/01/11 07:14:55;;;;;;;;;;;;;;;26.04;27.49;100738.63;5095072;28;1214;-36
2021/01/11 07:17:33;;;;;;;;;;;;;;;25.60;28.38;100766.84;5096033;28;1118;-37
2021/01/11 07:19:58;;;;;;;;;;;;;;;25.69;28.25;100776.66;5096509;28;765;-41
2021/01/11 07:22:23;;;;;;;;;;;;;;;26.14;27.56;100776.94;5086537;28;953;-36
2021/01/11 07:24:49;;;;;;;;;;;;;;;26.38;27.33;100767.09;5075645;28;1324;-41
2021/01/11 07:27:14;;;;;;;;;;;;;;;25.96;27.85;100746.75;5076188;28;842;-36
2021/01/11 07:29:39;;;;;;;;;;;;;;;25.63;28.34;100756.59;5076116;28;822;-37
2021/01/11 07:32:06;;;;;;;;;;;;;;;25.58;28.51;100763.47;5075418;28;1975;-35
2021/01/11 07:34:33;;;;;;;;;;;;;;;26.04;27.86;100785.25;5077715;28;784;-36
2021/01/11 07:36:58;;;;;;;;;;;;;;;26.20;27.66;100777.28;5085488;28;1020;-40
2021/01/11 07:39:27;;;;;;;;;;;;;;;25.80;28.01;100764.63;5099427;28;828;-36
2021/01/11 07:42:05;;;;;;;;;;;;;;;25.58;28.54;100745.47;5099098;28;842;-32
2021/01/11 07:44:34;;;;;;;;;;;;;;;25.85;28.20;100738.00;5099457;28;815;-35
2021/01/11 07:47:00;;;;;;;;;;;;;;;26.28;27.48;100699.88;5099312;28;862;-35
2021/01/11 07:49:29;;;;;;;;;;;;;;;26.43;27.35;100684.78;5099667;28;751;-39
2021/01/11 07:52:02;;;;;;;;;;;;;;;25.92;27.89;100686.94;5093638;28;1902;-36
2021/01/11 07:54:28;;;;;;;;;;;;;;;25.70;28.28;100681.31;5079690;28;820;-38
2021/01/11 07:56:53;;;;;;;;;;;;;;;26.16;27.79;100655.47;5099568;28;966;-40
2021/01/11 07:59:18;;;;;;;;;;;;;;;26.38;27.48;100628.72;5095994;28;951;-36
2021/01/11 08:01:44;;;;;;;;;;;;;;;26.42;27.43;100689.38;5099354;28;805;-34
2021/01/11 08:04:10;;;;;;;;;;;;;;;25.98;27.99;100712.34;5099562;28;1403;-36
2021/01/11 08:07:02;;;;;;;;;;;;;;;25.86;28.14;100728.91;5098885;28;949;-40
2021/01/11 08:09:28;;;;;;;;;;;;;;;26.30;27.42;100729.38;5095896;28;1666;-35
2021/01/11 08:12:08;;;;;;;;;;;;;;;26.55;27.14;100710.34;5099129;28;1883;-35
2021/01/11 08:14:34;;;;;;;;;;;;;;;26.28;27.32;100716.06;5099302;28;785;-35
2021/01/11 08:16:59;;;;;;;;;;;;;;;26.04;28.06;100728.66;5098672;28;1153;-41
2021/01/11 08:19:25;;;;;;;;;;;;;;;25.98;28.05;100729.38;5098302;28;787;-36
2021/01/11 08:21:57;;;;;;;;;;;;;;;26.44;27.31;100743.97;5093757;28;1001;-45
2021/01/11 08:24:22;;;;;;;;;;;;;;;26.71;26.87;100760.63;5078199;28;1230;-36
2021/01/11 08:26:49;;;;;;;;;;;;;;;26.11;27.44;100753.03;5078898;28;828;-39
2021/01/11 08:29:15;;;;;;;;;;;;;;;25.89;28.09;100743.91;5078898;28;788;-41
2021/01/11 08:31:40;;;;;;;;;;;;;;;25.95;28.13;100753.97;5076833;28;1976;-38
2021/01/11 08:34:06;;;;;;;;;;;;;;;26.21;27.75;100755.53;5078812;28;772;-42
2021/01/11 08:36:31;;;;;;;;;;;;;;;26.28;27.62;100739.47;5077232;28;973;-38
2021/01/11 08:39:01;;;;;;;;;;;;;;;25.75;28.38;100719.38;5078304;28;767;-42
2021/01/11 08:41:26;;;;;;;;;;;;;;;25.63;28.85;100701.88;5078384;28;835;-42
2021/01/11 08:43:51;;;;;;;;;;;;;;;26.02;28.04;100694.81;5077407;28;826;-43
2021/01/11 08:46:16;;;;;;;;;;;;;;;25.79;27.74;100696.44;5076012;28;937;-41
2021/01/11 08:48:42;;;;;;;;;;;;;;;25.35;27.48;100697.75;5077464;28;807;-38
2021/01/11 08:51:07;;;;;;;;;;;;;;;25.50;28.13;100705.94;5078419;28;1902;-36
2021/01/11 08:53:32;;;;;;;;;;;;;;;26.29;26.66;100695.34;5097328;28;950;-36
2021/01/11 08:56:01;;;;;;;;;;;;;;;26.55;26.15;100721.13;5098570;28;806;-34
2021/01/11 08:58:30;;;;;;;;;;;;;;;26.63;25.71;100722.91;5098362;28;790;-36
2021/01/11 09:01:10;;;;;;;;;;;;;;;26.65;25.38;100732.53;5098216;28;836;-35
2021/01/11 09:03:42;;;;;;;;;;;;;;;25.66;26.43;100723.09;5098250;28;612;-35
2021/01/11 09:06:07;;;;;;;;;;;;;;;25.19;28.35;100720.97;5098222;28;790;-35
2021/01/11 09:08:32;;;;;;;;;;;;;;;26.26;26.72;100718.09;5098160;28;953;-37
2021/01/11 09:10:57;;;;;;;;;;;;;;;26.83;26.15;100703.53;5098238;28;1901;-34
2021/01/11 09:13:25;;;;;;;;;;;;;;;27.05;25.75;100714.50;5098152;28;881;-37
2021/01/11 09:15:51;;;;;;;;;;;;;;;27.24;25.79;100727.47;5098131;28;833;-35
2021/01/11 09:18:16;;;;;;;;;;;;;;;27.43;25.74;100751.41;5098146;28;1130;-34
2021/01/11 09:20:42;;;;;;;;;;;;;;;26.70;26.44;100760.81;5098019;28;806;-34
2021/01/11 09:23:07;;;;;;;;;;;;;;;26.30;27.23;100761.72;5081288;28;1158;-35
2021/01/11 09:25:33;;;;;;;;;;;;;;;26.23;27.40;100766.13;5077228;28;1269;-35
2021/01/11 09:27:59;;;;;;;;;;;;;;;25.52;26.87;100760.50;5111210;28;1518;-37
2021/01/11 09:30:24;;;;;;;;;;;;;;;25.28;26.96;100769.44;5102710;28;714;-39
2021/01/11 09:32:50;;;;;;;;;;;;;;;25.70;26.33;100783.69;5116957;28;1984;-36
2021/01/11 09:35:15;;;;;;;;;;;;;;;25.41;26.43;100793.13;5118028;28;834;-38
2021/01/11 09:37:40;;;;;;;;;;;;;;;25.28;27.01;100793.66;5105345;28;956;-41
2021/01/11 09:40:06;;;;;;;;;;;;;;;25.13;26.48;100801.56;5097844;28;834;-42
2021/01/11 09:42:31;;;;;;;;;;;;;;;25.12;26.77;100795.38;5097453;28;814;-36
2021/01/11 09:44:57;;;;;;;;;;;;;;;25.40;26.17;100775.31;5097381;28;810;-40
2021/01/11 09:47:22;;;;;;;;;;;;;;;25.58;25.68;100766.16;5097882;28;825;-36
2021/01/11 09:49:48;;;;;;;;;;;;;;;25.13;26.27;100753.97;5097418;28;743;-38
2021/01/11 09:52:13;;;;;;;;;;;;;;;25.05;26.29;100753.97;5096668;28;1905;-40
2021/01/11 09:54:38;;;;;;;;;;;;;;;25.42;25.96;100744.50;5097534;28;751;-39
2021/01/11 09:57:04;;;;;;;;;;;;;;;25.42;25.97;100728.34;5097118;28;816;-38
2021/01/11 09:59:30;;;;;;;;;;;;;;;25.37;25.84;100744.19;5096752;28;829;-35
2021/01/11 10:01:55;;;;;;;;;;;;;;;25.12;26.34;100743.38;5097326;28;839;-39
2021/01/11 10:04:20;;;;;;;;;;;;;;;25.04;26.17;100755.00;5097242;28;767;-41
2021/01/11 10:06:49;;;;;;;;;;;;;;;25.34;25.91;100757.16;5096275;28;929;-36
2021/01/11 10:09:17;;;;;;;;;;;;;;;25.35;25.80;100765.06;5097275;28;811;-40
2021/01/11 10:11:50;;;;;;;;;;;;;;;25.04;26.23;100765.75;5097121;28;1909;-41
2021/01/11 10:14:15;;;;;;;;;;;;;;;25.10;27.15;100773.16;5096595;28;839;-39
2021/01/11 10:16:41;;;;;;;;;;;;;;;25.48;26.20;100785.22;5096955;28;1150;-37
2021/01/11 10:19:07;;;;;;;;;;;;;;;25.55;26.59;100786.22;5096965;28;839;-40
2021/01/11 10:21:33;;;;;;;;;;;;;;;25.36;35.15;100777.50;5093621;28;1032;-42
2021/01/11 10:23:58;;;;;;;;;;;;;;;24.87;38.01;100786.41;5076473;28;1184;-36
2021/01/11 10:26:23;;;;;;;;;;;;;;;24.83;35.94;100778.66;5076607;28;854;-35
2021/01/11 10:28:49;;;;;;;;;;;;;;;25.26;35.91;100780.38;5076400;28;866;-35
2021/01/11 10:31:15;;;;;;;;;;;;;;;25.23;35.33;100783.41;5076672;28;1919;-42
2021/01/11 10:33:40;;;;;;;;;;;;;;;25.07;34.66;100768.94;5076684;28;799;-40
2021/01/11 10:36:05;;;;;;;;;;;;;;;25.22;33.75;100762.03;5076266;28;774;-42
2021/01/11 10:38:31;;;;;;;;;;;;;;;25.61;32.87;100744.31;5095338;28;1095;-42
2021/01/11 10:40:56;;;;;;;;;;;;;;;25.92;31.88;100746.25;5096911;28;762;-36
2021/01/11 10:43:21;;;;;;;;;;;;;;;25.85;31.40;100747.94;5096448;28;751;-36
2021/01/11 10:45:47;;;;;;;;;;;;;;;25.51;31.82;100744.47;5096766;28;798;-33
2021/01/11 10:48:12;;;;;;;;;;;;;;;25.61;32.52;100752.38;5097072;28;833;-31
2021/01/11 10:50:37;;;;;;;;;;;;;;;26.11;30.89;100747.66;5096467;28;878;-32
2021/01/11 10:53:02;;;;;;;;;;;;;;;26.31;30.41;100738.31;5096247;28;1898;-37
2021/01/11 10:55:28;;;;;;;;;;;;;;;25.95;30.73;100745.88;5096606;28;532;-32
2021/01/11 10:57:53;;;;;;;;;;;;;;;25.74;31.13;100741.09;5096340;28;866;-34
2021/01/11 11:00:21;;;;;;;;;;;;;;;26.24;30.47;100733.59;5096408;28;775;-37
2021/01/11 11:02:47;;;;;;;;;;;;;;;26.29;30.05;100725.81;5096595;28;946;-36
2021/01/11 11:05:12;;;;;;;;;;;;;;;25.99;29.92;100731.03;5096245;28;773;-36
2021/01/11 11:07:38;;;;;;;;;;;;;;;25.76;30.35;100729.13;5096304;28;981;-36
2021/01/11 11:10:06;;;;;;;;;;;;;;;25.87;29.61;100722.53;5099594;28;826;-37
2021/01/11 11:12:32;;;;;;;;;;;;;;;26.32;29.33;100711.16;5100455;28;1972;-35
2021/01/11 11:14:59;;;;;;;;;;;;;;;26.31;29.39;100711.34;5100576;28;865;-39
2021/01/11 11:17:27;;;;;;;;;;;;;;;26.04;29.76;100709.78;5100465;28;1149;-38
2021/01/11 11:19:53;;;;;;;;;;;;;;;26.18;29.85;100712.75;5100733;28;747;-38
2021/01/11 11:22:18;;;;;;;;;;;;;;;26.51;29.27;100722.50;5090563;28;989;-37
2021/01/11 11:24:43;;;;;;;;;;;;;;;26.60;28.99;100702.56;5080198;28;1103;-37
2021/01/11 11:27:08;;;;;;;;;;;;;;;26.23;29.46;100710.34;5079933;28;743;-34
2021/01/11 11:29:34;;;;;;;;;;;;;;;26.13;29.62;100739.38;5079530;28;755;-45
2021/01/11 11:31:59;;;;;;;;;;;;;;;26.48;29.32;100745.28;5080295;28;1920;-35
2021/01/11 11:34:24;;;;;;;;;;;;;;;26.75;28.82;100759.28;5079861;28;759;-36
2021/01/11 11:36:53;;;;;;;;;;;;;;;26.45;29.00;100761.84;5084309;28;1029;-44
2021/01/11 11:39:18;;;;;;;;;;;;;;;26.19;29.60;100760.28;5100126;28;862;-41
2021/01/11 11:41:44;;;;;;;;;;;;;;;26.45;29.47;100751.03;5100298;28;876;-37
2021/01/11 11:44:09;;;;;;;;;;;;;;;26.77;28.77;100751.84;5099632;28;886;-34
2021/01/11 11:46:34;;;;;;;;;;;;;;;26.72;28.59;100756.94;5099952;28;806;-43
2021/01/11 11:48:59;;;;;;;;;;;;;;;26.35;29.46;100737.78;5099866;28;814;-43
2021/01/11 11:51:27;;;;;;;;;;;;;;;26.41;29.56;100742.47;5099162;28;1945;-41
2021/01/11 11:53:52;;;;;;;;;;;;;;;26.81;28.84;100755.00;5099832;28;806;-40
2021/01/11 11:56:17;;;;;;;;;;;;;;;26.87;28.61;100773.19;5099552;28;835;-38
2021/01/11 11:58:43;;;;;;;;;;;;;;;26.55;28.90;100775.09;5099394;28;935;-36
2021/01/11 12:01:08;;;;;;;;;;;;;;;26.25;29.67;100777.59;5099393;28;1046;-37
2021/01/11 12:03:33;;;;;;;;;;;;;;;26.72;29.01;100775.81;5097365;28;1323;-38
2021/01/11 12:05:59;;;;;;;;;;;;;;;26.85;28.93;100783.31;5098970;28;747;-37
2021/01/11 12:08:24;;;;;;;;;;;;;;;26.59;28.96;100789.06;5092258;28;1152;-35
2021/01/11 12:10:49;;;;;;;;;;;;;;;26.35;29.48;100780.09;5093946;28;940;-35
2021/01/11 12:13:15;;;;;;;;;;;;;;;26.78;28.87;100779.66;5098308;28;1965;-34
2021/01/11 12:15:40;;;;;;;;;;;;;;;26.95;28.55;100771.41;5099155;28;854;-31
2021/01/11 12:18:05;;;;;;;;;;;;;;;26.84;28.53;100759.22;5099005;28;1059;-32
2021/01/11 12:20:30;;;;;;;;;;;;;;;26.43;29.34;100793.53;5098041;28;893;-35
2021/01/11 12:22:56;;;;;;;;;;;;;;;26.44;29.47;100800.63;5084354;28;1005;-34
2021/01/11 12:25:22;;;;;;;;;;;;;;;26.70;29.01;100810.25;5078402;28;1071;-40
2021/01/11 12:27:47;;;;;;;;;;;;;;;27.01;28.48;100792.28;5078157;28;930;-39
2021/01/11 12:30:13;;;;;;;;;;;;;;;26.75;28.85;100796.19;5078725;28;776;-38
2021/01/11 12:32:46;;;;;;;;;;;;;;;26.36;29.46;100784.50;5078354;28;1917;-38
2021/01/11 12:35:11;;;;;;;;;;;;;;;26.52;29.32;100797.03;5077972;28;814;-38
2021/01/11 12:37:37;;;;;;;;;;;;;;;26.90;28.60;100812.47;5090153;28;1025;-38
2021/01/11 12:40:02;;;;;;;;;;;;;;;27.05;28.34;100812.53;5098796;28;807;-33
2021/01/11 12:42:27;;;;;;;;;;;;;;;26.48;28.90;100798.38;5098839;28;711;-39
2021/01/11 12:44:53;;;;;;;;;;;;;;;26.38;28.97;100796.75;5098773;28;774;-37
2021/01/11 12:47:18;;;;;;;;;;;;;;;26.83;28.52;100798.00;5098911;28;778;-38
2021/01/11 12:49:43;;;;;;;;;;;;;;;27.02;28.17;100802.13;5098786;28;798;-37